Epping, ND (58843)

8:35 PM CDT on March 23, 2017 (GMT -0500)
Diesel | | Change Station

Elev 2385 ft 48.30 °N, 103.22 °W | Updated 10 seconds ago

Mostly Cloudy
Mostly Cloudy
41.7 °F
Feels Like 40 °F
N
3.6
Wind Variable Wind from NNE
Gusts 4.9 mph

Today
High -- | Low -- °F
--% Chance of Precip.
Yesterday
High -- | Low -- °F
Precip. -- in
Pressure 29.88 in
Visibility 10.0 miles
Clouds Overcast 10000 ft
Windchill 40 °F
Dew Point 14 °F
Humidity 32%
Rainfall 0.00 in
Snow Depth Not available.
7:49 AM 8:11 PM
Waning Crescent, 19% visible
METAR KISN 240052Z AUTO 03007KT 10SM OVC100 11/03 A2984 RMK AO2 SLP117 T01060028
Pressure 29.88 in
Visibility 10.0 miles
Clouds Overcast 10000 ft
Windchill 40 °F
Dew Point 14 °F
Humidity 32%
Rainfall 0.00 in
Snow Depth Not available.
7:49 AM 8:11 PM
Waning Crescent, 19% visible
METAR KISN 240052Z AUTO 03007KT 10SM OVC100 11/03 A2984 RMK AO2 SLP117 T01060028

Get Severe Weather Alerts

Thanks for signing up!

Be on the lookout for a verification email in your inbox.

You'll start receiving the daily forecast at 8 AM.

×

10-Day Weather Forecast

Almanac

Astronomy

Mar. 23, 2017 Rise Set
Actual Time
Civil Twilight
Nautical Twilight
Astronomical Twilight
Moon
Length of Visible Light
Length of Day
Tomorrow will be .
, % of the Moon is Illuminated

Today's Extremes

State Highs State Lows

Community

WunderPhotos

Upload Photos

1,962,540 photos uploaded!

WunderBlog® & News

Nearby

Air Quality

  Air Quality AQ Index Pollutant
Not available.

Snow Depth

Station Depth Elevation

Earthquake Activity

City Distance Mag. Time & Date
Minimum magnitude displayed is 2.5.

Earthquake Activity

City Distance Mag. Time & Date
Minimum magnitude displayed is 2.5.

Coastal Water Temperatures

Place Temperature

Stations

Nearby Weather Stations

Station Location Temp. Windchill Dew Point Humidity Wind Precip. Elev Updated Type
                   

Watches & Warnings

There are currently no watches in effect.